createdAt,value
2022-11-05T00:00:08.219Z,45.00
2022-11-05T00:00:18.200Z,44.70
2022-11-05T00:00:28.223Z,43.80
2022-11-05T00:00:38.216Z,44.00
2022-11-05T00:00:48.205Z,42.70
2022-11-05T00:00:58.775Z,42.70
2022-11-05T00:01:08.277Z,42.80
2022-11-05T00:01:18.259Z,43.90
2022-11-05T00:01:28.216Z,43.70
2022-11-05T00:01:38.235Z,43.20
2022-11-05T00:01:48.290Z,42.80
2022-11-05T00:01:58.326Z,43.20
2022-11-05T00:02:08.202Z,43.90
2022-11-05T00:02:18.204Z,44.40
2022-11-05T00:02:28.765Z,44.70
2022-11-05T00:02:38.198Z,45.30
2022-11-05T00:02:48.202Z,44.30
2022-11-05T00:02:58.237Z,44.50
2022-11-05T00:03:08.701Z,44.30
2022-11-05T00:03:18.227Z,45.90
2022-11-05T00:03:28.240Z,46.20
2022-11-05T00:03:38.851Z,48.40
2022-11-05T00:03:48.263Z,47.90
2022-11-05T00:03:58.283Z,48.70
2022-11-05T00:04:08.288Z,46.50
2022-11-05T00:04:18.194Z,48.70
2022-11-05T00:04:30.963Z,48.20
2022-11-05T00:04:38.186Z,48.90
2022-11-05T00:04:48.228Z,48.10
2022-11-05T00:04:58.209Z,48.20
2022-11-05T00:05:08.210Z,48.00
2022-11-05T00:05:18.332Z,46.60
2022-11-05T00:05:28.185Z,46.80
2022-11-05T00:05:38.193Z,46.60
2022-11-05T00:05:48.187Z,46.80
2022-11-05T00:06:00.773Z,45.90
2022-11-05T00:06:08.195Z,46.40
2022-11-05T00:06:18.188Z,47.70
2022-11-05T00:06:28.177Z,48.30
2022-11-05T00:06:38.190Z,49.40
2022-11-05T00:06:48.178Z,50.20
2022-11-05T00:06:58.791Z,49.40
2022-11-05T00:07:08.342Z,47.90
2022-11-05T00:07:18.254Z,46.90
2022-11-05T00:07:28.183Z,47.20
2022-11-05T00:07:38.205Z,47.70
2022-11-05T00:07:48.188Z,48.40
2022-11-05T00:07:58.174Z,48.30
2022-11-05T00:08:08.768Z,47.50
2022-11-05T00:08:18.166Z,46.10
2022-11-05T00:08:28.182Z,46.30
2022-11-05T00:08:38.166Z,46.00
2022-11-05T00:08:48.195Z,45.70
2022-11-05T00:08:58.196Z,44.90
2022-11-05T00:09:08.168Z,45.70
2022-11-05T00:09:18.776Z,47.20
2022-11-05T00:09:28.234Z,48.60
2022-11-05T00:09:38.345Z,48.70
2022-11-05T00:09:48.173Z,48.80
2022-11-05T00:09:58.160Z,49.70
2022-11-05T00:10:08.254Z,51.00
2022-11-05T00:10:18.167Z,51.80
2022-11-05T00:10:28.186Z,51.20
2022-11-05T00:10:38.177Z,51.60
2022-11-05T00:10:48.165Z,51.30
2022-11-05T00:10:58.158Z,52.80
2022-11-05T00:11:08.179Z,53.30
2022-11-05T00:11:18.798Z,54.60
2022-11-05T00:11:28.807Z,55.20
2022-11-05T00:11:38.160Z,55.70
2022-11-05T00:11:48.164Z,56.40
2022-11-05T00:11:58.161Z,55.50
2022-11-05T00:12:08.166Z,54.70
2022-11-05T00:12:18.251Z,53.80
2022-11-05T00:12:28.163Z,55.40
2022-11-05T00:12:38.146Z,56.50
2022-11-05T00:12:48.170Z,56.80
2022-11-05T00:12:58.154Z,56.00
2022-11-05T00:13:08.653Z,55.30
2022-11-05T00:13:18.175Z,55.90
2022-11-05T00:13:28.188Z,56.10
2022-11-05T00:13:38.159Z,58.60
2022-11-05T00:13:48.155Z,61.60
2022-11-05T00:13:58.142Z,62.20
2022-11-05T00:14:08.157Z,61.80
2022-11-05T00:14:18.224Z,60.30
2022-11-05T00:14:28.784Z,61.80
2022-11-05T00:14:38.163Z,60.70
2022-11-05T00:14:48.148Z,60.70
2022-11-05T00:14:58.148Z,60.50
2022-11-05T00:15:08.164Z,61.90
2022-11-05T00:15:18.159Z,61.70
2022-11-05T00:15:28.143Z,62.00
2022-11-05T00:15:38.273Z,62.60
2022-11-05T00:15:48.145Z,64.80
2022-11-05T00:15:58.134Z,64.90
2022-11-05T00:16:08.164Z,64.30
2022-11-05T00:16:18.170Z,64.80
2022-11-05T00:16:28.183Z,64.90
2022-11-05T00:16:38.161Z,64.50
2022-11-05T00:16:48.142Z,63.80
2022-11-05T00:16:58.152Z,64.30
2022-11-05T00:17:08.141Z,65.40
2022-11-05T00:17:18.136Z,65.30
2022-11-05T00:17:28.184Z,65.60
2022-11-05T00:17:38.180Z,65.50
2022-11-05T00:17:48.141Z,66.20
2022-11-05T00:17:58.136Z,66.30
2022-11-05T00:18:08.132Z,67.70
2022-11-05T00:18:18.769Z,66.90
2022-11-05T00:18:28.153Z,67.10
2022-11-05T00:18:38.140Z,65.60
2022-11-05T00:18:48.137Z,65.80
2022-11-05T00:18:58.122Z,64.50
2022-11-05T00:19:08.128Z,64.60
2022-11-05T00:19:18.124Z,63.50
2022-11-05T00:19:28.158Z,64.90
2022-11-05T00:19:38.150Z,64.20
2022-11-05T00:19:48.285Z,65.30
2022-11-05T00:19:58.127Z,64.20
2022-11-05T00:20:08.121Z,64.70
2022-11-05T00:20:18.122Z,62.80
2022-11-05T00:20:28.130Z,62.20
2022-11-05T00:20:38.118Z,61.00
2022-11-05T00:20:48.132Z,63.40
2022-11-05T00:20:58.211Z,65.10
2022-11-05T00:21:08.118Z,66.10
2022-11-05T00:21:18.120Z,65.20
2022-11-05T00:21:28.117Z,66.20
2022-11-05T00:21:38.122Z,66.50
2022-11-05T00:21:48.771Z,67.40
2022-11-05T00:21:58.230Z,66.60
2022-11-05T00:22:08.116Z,67.10
2022-11-05T00:22:18.112Z,66.00
2022-11-05T00:22:28.126Z,65.40
2022-11-05T00:22:38.183Z,65.90
2022-11-05T00:22:48.148Z,64.80
2022-11-05T00:22:58.139Z,64.10
2022-11-05T00:23:08.436Z,63.90
2022-11-05T00:23:18.110Z,65.10
2022-11-05T00:23:28.108Z,66.10
2022-11-05T00:23:38.126Z,65.10
2022-11-05T00:23:48.161Z,65.40
2022-11-05T00:23:58.203Z,65.60
2022-11-05T00:24:08.125Z,67.00
2022-11-05T00:24:23.206Z,66.60
2022-11-05T00:24:28.110Z,65.50
2022-11-05T00:24:38.133Z,65.40
2022-11-05T00:24:48.109Z,64.60
2022-11-05T00:24:58.096Z,65.40
2022-11-05T00:25:08.118Z,65.00
2022-11-05T00:25:18.099Z,65.60
2022-11-05T00:25:28.100Z,63.60
2022-11-05T00:25:38.122Z,61.30
2022-11-05T00:25:48.106Z,60.50
2022-11-05T00:25:58.773Z,62.10
2022-11-05T00:26:08.093Z,64.80
2022-11-05T00:26:18.092Z,64.80
2022-11-05T00:26:28.095Z,65.00
2022-11-05T00:26:38.086Z,64.20
2022-11-05T00:26:48.089Z,64.20
2022-11-05T00:26:58.097Z,62.60
2022-11-05T00:27:08.102Z,62.50
2022-11-05T00:27:18.088Z,62.00
2022-11-05T00:27:28.817Z,63.10
2022-11-05T00:27:38.139Z,61.80
2022-11-05T00:27:48.129Z,62.80
2022-11-05T00:27:58.119Z,62.20
2022-11-05T00:28:08.166Z,62.20
2022-11-05T00:28:18.131Z,61.90
2022-11-05T00:28:28.113Z,61.90
2022-11-05T00:28:38.090Z,63.70
2022-11-05T00:28:48.091Z,64.00
2022-11-05T00:28:58.110Z,63.60
2022-11-05T00:29:08.091Z,63.40
2022-11-05T00:29:18.083Z,64.20
2022-11-05T00:29:28.077Z,64.70
2022-11-05T00:29:38.770Z,64.30
2022-11-05T00:29:48.160Z,65.00
2022-11-05T00:29:58.074Z,64.40
2022-11-05T00:30:08.781Z,63.90
2022-11-05T00:30:18.085Z,60.30
2022-11-05T00:30:28.098Z,60.50
2022-11-05T00:30:38.078Z,60.40
2022-11-05T00:30:48.152Z,61.10
2022-11-05T00:30:58.078Z,58.90
2022-11-05T00:31:08.075Z,56.90
2022-11-05T00:31:18.191Z,56.20
2022-11-05T00:31:28.094Z,58.00
2022-11-05T00:31:38.073Z,59.20
2022-11-05T00:31:48.089Z,59.10
2022-11-05T00:31:58.067Z,58.00
2022-11-05T00:32:08.099Z,58.20
2022-11-05T00:32:18.180Z,58.40
2022-11-05T00:32:28.769Z,59.20
2022-11-05T00:32:38.073Z,60.10
2022-11-05T00:32:48.065Z,61.70
2022-11-05T00:32:58.108Z,62.40
2022-11-05T00:33:09.188Z,61.30
2022-11-05T00:33:18.073Z,62.00
2022-11-05T00:33:28.061Z,62.30
2022-11-05T00:33:38.137Z,62.20
2022-11-05T00:33:48.126Z,60.50
2022-11-05T00:33:58.061Z,60.20
2022-11-05T00:34:08.066Z,61.80
2022-11-05T00:34:18.788Z,63.90
2022-11-05T00:34:28.055Z,65.70
2022-11-05T00:34:38.080Z,66.00
2022-11-05T00:34:48.065Z,66.30
2022-11-05T00:34:58.163Z,65.40
2022-11-05T00:35:08.080Z,65.60
2022-11-05T00:35:18.086Z,64.40
2022-11-05T00:35:28.077Z,64.00
2022-11-05T00:35:38.054Z,64.10
2022-11-05T00:35:48.087Z,65.80
2022-11-05T00:35:58.150Z,66.30
2022-11-05T00:36:08.064Z,66.50
2022-11-05T00:36:18.085Z,63.90
2022-11-05T00:36:28.181Z,61.70
2022-11-05T00:36:38.078Z,59.40
2022-11-05T00:36:48.055Z,58.30
2022-11-05T00:36:58.059Z,57.90
2022-11-05T00:37:08.048Z,57.80
2022-11-05T00:37:18.057Z,57.20
2022-11-05T00:37:28.080Z,56.90
2022-11-05T00:37:38.089Z,56.10
2022-11-05T00:37:50.213Z,56.40
2022-11-05T00:37:58.075Z,58.00
2022-11-05T00:38:08.107Z,58.40
2022-11-05T00:38:18.046Z,59.40
2022-11-05T00:38:28.780Z,58.60
2022-11-05T00:38:38.043Z,58.20
2022-11-05T00:38:48.063Z,58.10
2022-11-05T00:38:58.037Z,59.00
2022-11-05T00:39:08.032Z,59.80
2022-11-05T00:39:18.065Z,58.10
2022-11-05T00:39:28.099Z,55.10
2022-11-05T00:39:38.038Z,54.10
2022-11-05T00:39:48.033Z,54.90
2022-11-05T00:39:58.040Z,55.20
2022-11-05T00:40:08.034Z,53.00
2022-11-05T00:40:18.046Z,51.80
2022-11-05T00:40:28.815Z,51.60
2022-11-05T00:40:38.112Z,52.10
2022-11-05T00:40:48.030Z,51.50
2022-11-05T00:40:58.037Z,52.40
2022-11-05T00:41:08.033Z,54.90
2022-11-05T00:41:18.029Z,56.20
2022-11-05T00:41:28.110Z,55.60
2022-11-05T00:41:38.026Z,54.90
2022-11-05T00:41:48.028Z,54.90
2022-11-05T00:41:58.084Z,56.10
2022-11-05T00:42:08.027Z,55.90
2022-11-05T00:42:18.038Z,56.30
2022-11-05T00:42:28.023Z,56.60
2022-11-05T00:42:38.776Z,56.70
2022-11-05T00:42:48.031Z,55.90
2022-11-05T00:42:58.028Z,54.60
2022-11-05T00:43:08.424Z,55.10
2022-11-05T00:43:18.099Z,54.30
2022-11-05T00:43:28.063Z,53.20
2022-11-05T00:43:38.025Z,52.00
2022-11-05T00:43:48.027Z,51.90
2022-11-05T00:43:58.023Z,52.80
2022-11-05T00:44:08.032Z,52.80
2022-11-05T00:44:18.066Z,53.50
2022-11-05T00:44:28.779Z,53.90
2022-11-05T00:44:38.783Z,53.50
2022-11-05T00:44:48.104Z,53.40
2022-11-05T00:44:58.013Z,53.70
2022-11-05T00:45:08.027Z,53.80
2022-11-05T00:45:18.016Z,54.00
2022-11-05T00:45:28.016Z,53.40
2022-11-05T00:45:38.019Z,52.90
2022-11-05T00:45:48.019Z,53.10
2022-11-05T00:45:58.024Z,51.50
2022-11-05T00:46:08.021Z,52.00
2022-11-05T00:46:18.013Z,52.30
2022-11-05T00:46:28.023Z,54.30
2022-11-05T00:46:38.082Z,54.90
2022-11-05T00:46:48.016Z,55.70
2022-11-05T00:46:59.941Z,55.30
2022-11-05T00:47:08.031Z,56.10
2022-11-05T00:47:18.007Z,54.50
2022-11-05T00:47:27.998Z,54.00
2022-11-05T00:47:38.022Z,52.60
2022-11-05T00:47:48.017Z,52.50
2022-11-05T00:47:58.032Z,52.70
2022-11-05T00:48:08.824Z,52.70
2022-11-05T00:48:18.817Z,52.00
2022-11-05T00:48:28.036Z,53.00
2022-11-05T00:48:38.040Z,52.70
2022-11-05T00:48:48.005Z,53.40
2022-11-05T00:48:57.995Z,53.20
2022-11-05T00:49:07.993Z,53.80
2022-11-05T00:49:18.022Z,55.30
2022-11-05T00:49:28.012Z,55.00
2022-11-05T00:49:38.000Z,55.40
2022-11-05T00:49:48.779Z,55.20
2022-11-05T00:49:58.005Z,56.50
2022-11-05T00:50:07.989Z,55.90
2022-11-05T00:50:18.002Z,55.80
2022-11-05T00:50:28.002Z,55.10
2022-11-05T00:50:38.001Z,56.10
2022-11-05T00:50:47.990Z,54.60
2022-11-05T00:50:58.787Z,54.70
2022-11-05T00:51:07.991Z,53.30
2022-11-05T00:51:17.990Z,54.30
2022-11-05T00:51:27.979Z,54.30
2022-11-05T00:51:37.987Z,55.20
2022-11-05T00:51:50.786Z,56.20
2022-11-05T00:51:57.993Z,54.90
2022-11-05T00:52:07.995Z,54.80
2022-11-05T00:52:18.118Z,53.50
2022-11-05T00:52:27.984Z,53.60
2022-11-05T00:52:38.016Z,54.20
2022-11-05T00:52:48.001Z,55.70
2022-11-05T00:52:58.227Z,56.50
2022-11-05T00:53:09.102Z,56.40
2022-11-05T00:53:17.981Z,55.40
2022-11-05T00:53:27.997Z,54.60
2022-11-05T00:53:38.054Z,53.30
2022-11-05T00:53:47.977Z,51.90
2022-11-05T00:53:57.975Z,52.20
2022-11-05T00:54:07.980Z,52.60
2022-11-05T00:54:18.001Z,52.30
2022-11-05T00:54:27.977Z,52.10
2022-11-05T00:54:37.977Z,51.80
2022-11-05T00:54:47.997Z,52.60
2022-11-05T00:54:57.988Z,54.20
2022-11-05T00:55:08.788Z,53.50
2022-11-05T00:55:17.976Z,53.20
2022-11-05T00:55:27.971Z,51.40
2022-11-05T00:55:38.791Z,53.40
2022-11-05T00:55:47.972Z,53.90
2022-11-05T00:55:57.977Z,55.40
2022-11-05T00:56:07.989Z,54.50
2022-11-05T00:56:17.971Z,55.90
2022-11-05T00:56:27.960Z,56.40
2022-11-05T00:56:37.974Z,56.60
2022-11-05T00:56:47.960Z,55.40
2022-11-05T00:57:03.463Z,54.60
2022-11-05T00:57:07.988Z,54.10
2022-11-05T00:57:18.086Z,53.70
2022-11-05T00:57:27.954Z,53.30
2022-11-05T00:57:37.965Z,54.80
2022-11-05T00:57:47.970Z,55.40
2022-11-05T00:57:57.956Z,55.80
2022-11-05T00:58:08.065Z,55.40
2022-11-05T00:58:17.971Z,56.90
2022-11-05T00:58:27.965Z,57.00
2022-11-05T00:58:38.804Z,56.90
2022-11-05T00:58:47.998Z,55.20
2022-11-05T00:58:57.965Z,54.60
2022-11-05T00:59:07.972Z,53.90
2022-11-05T00:59:18.786Z,53.20
2022-11-05T00:59:27.946Z,53.20
2022-11-05T00:59:37.993Z,54.30
2022-11-05T00:59:47.979Z,55.00
2022-11-05T00:59:57.947Z,55.00
2022-11-05T01:00:07.949Z,53.00
2022-11-05T01:00:17.968Z,52.00
2022-11-05T01:00:27.945Z,51.80
2022-11-05T01:00:37.950Z,51.80
2022-11-05T01:00:47.939Z,52.20
2022-11-05T01:00:57.948Z,53.30
2022-11-05T01:01:07.956Z,55.30
2022-11-05T01:01:18.957Z,57.00
2022-11-05T01:01:28.043Z,57.40
2022-11-05T01:01:38.051Z,59.70
2022-11-05T01:01:48.073Z,61.10
2022-11-05T01:01:58.234Z,62.20
2022-11-05T01:02:08.028Z,61.40
2022-11-05T01:02:18.223Z,60.90
2022-11-05T01:02:28.058Z,60.30
2022-11-05T01:02:38.136Z,60.20
2022-11-05T01:02:48.079Z,62.10
2022-11-05T01:02:57.984Z,64.20
2022-11-05T01:03:08.224Z,66.20
2022-11-05T01:03:17.952Z,66.60
2022-11-05T01:03:28.826Z,68.50
2022-11-05T01:03:37.935Z,70.70
2022-11-05T01:03:51.696Z,73.00
2022-11-05T01:03:57.974Z,72.00
2022-11-05T01:04:07.935Z,71.90
2022-11-05T01:04:18.031Z,69.90
2022-11-05T01:04:27.953Z,70.40
2022-11-05T01:04:37.976Z,66.80
2022-11-05T01:04:47.929Z,66.90
2022-11-05T01:04:58.071Z,66.70
2022-11-05T01:05:07.935Z,69.00
2022-11-05T01:05:18.119Z,68.00
2022-11-05T01:05:27.957Z,67.20
2022-11-05T01:05:38.076Z,66.90
2022-11-05T01:05:47.929Z,69.60
2022-11-05T01:05:57.934Z,69.90
2022-11-05T01:06:07.916Z,69.80
2022-11-05T01:06:17.929Z,67.40
2022-11-05T01:06:27.919Z,67.90
2022-11-05T01:06:37.938Z,68.20
2022-11-05T01:06:47.932Z,67.80
2022-11-05T01:06:57.918Z,68.00
2022-11-05T01:07:07.926Z,67.10
2022-11-05T01:07:17.917Z,67.60
2022-11-05T01:07:28.812Z,68.10
2022-11-05T01:07:38.052Z,68.30
2022-11-05T01:07:47.923Z,68.60
2022-11-05T01:07:57.921Z,66.00
2022-11-05T01:08:07.909Z,66.60
2022-11-05T01:08:17.943Z,67.60
2022-11-05T01:08:27.927Z,69.30
2022-11-05T01:08:37.931Z,69.00
2022-11-05T01:08:47.943Z,66.80
2022-11-05T01:08:57.909Z,66.80
2022-11-05T01:09:07.944Z,65.80
2022-11-05T01:09:17.930Z,66.80
2022-11-05T01:09:28.006Z,64.60
2022-11-05T01:09:37.993Z,65.00
2022-11-05T01:09:47.901Z,65.60
2022-11-05T01:09:57.911Z,67.00
2022-11-05T01:10:07.906Z,67.00
2022-11-05T01:10:17.903Z,68.00
2022-11-05T01:10:27.982Z,69.00
2022-11-05T01:10:37.912Z,71.40
2022-11-05T01:10:47.908Z,71.40
2022-11-05T01:10:58.932Z,71.40
2022-11-05T01:11:07.915Z,71.00
2022-11-05T01:11:17.934Z,71.40
2022-11-05T01:11:27.909Z,73.00
2022-11-05T01:11:37.929Z,71.80
2022-11-05T01:11:48.015Z,70.60
2022-11-05T01:11:57.895Z,70.10
2022-11-05T01:12:07.892Z,68.50
2022-11-05T01:12:17.912Z,67.00
2022-11-05T01:12:27.910Z,66.00
2022-11-05T01:12:37.901Z,67.20
2022-11-05T01:12:47.896Z,69.10
2022-11-05T01:12:57.909Z,67.40
2022-11-05T01:13:12.654Z,68.30
2022-11-05T01:13:18.233Z,66.30
2022-11-05T01:13:27.901Z,66.70
2022-11-05T01:13:37.889Z,64.50
2022-11-05T01:13:48.050Z,65.20
2022-11-05T01:13:58.115Z,65.50
2022-11-05T01:14:07.898Z,67.30
2022-11-05T01:14:18.012Z,68.10
2022-11-05T01:14:27.887Z,69.50
2022-11-05T01:14:37.892Z,69.00
2022-11-05T01:14:48.009Z,68.10
2022-11-05T01:14:57.894Z,67.90
2022-11-05T01:15:07.880Z,67.90
2022-11-05T01:15:17.879Z,68.30
2022-11-05T01:15:27.888Z,67.30
2022-11-05T01:15:37.880Z,66.40
2022-11-05T01:15:47.892Z,65.90
2022-11-05T01:15:58.007Z,66.00
2022-11-05T01:16:07.878Z,67.90
2022-11-05T01:16:17.882Z,68.10
2022-11-05T01:16:27.878Z,68.50
2022-11-05T01:16:37.879Z,67.70
2022-11-05T01:16:47.904Z,68.60
2022-11-05T01:16:57.879Z,67.90
2022-11-05T01:17:07.878Z,67.50
2022-11-05T01:17:17.876Z,66.90
2022-11-05T01:17:27.882Z,66.90
2022-11-05T01:17:37.875Z,66.10
2022-11-05T01:17:47.927Z,66.10
2022-11-05T01:17:58.890Z,66.90
2022-11-05T01:18:07.869Z,67.70
2022-11-05T01:18:18.083Z,67.50
2022-11-05T01:18:27.884Z,66.70
2022-11-05T01:18:38.783Z,67.00
2022-11-05T01:18:48.820Z,66.50
2022-11-05T01:18:57.865Z,68.90
2022-11-05T01:19:07.865Z,70.30
2022-11-05T01:19:17.868Z,73.20
2022-11-05T01:19:27.908Z,71.10
2022-11-05T01:19:37.877Z,68.00
2022-11-05T01:19:47.888Z,64.70
2022-11-05T01:19:57.874Z,62.90
2022-11-05T01:20:07.936Z,63.00
2022-11-05T01:20:17.861Z,63.90
2022-11-05T01:20:27.857Z,65.40
2022-11-05T01:20:37.892Z,65.30
2022-11-05T01:20:47.865Z,64.00
2022-11-05T01:20:57.899Z,64.30
2022-11-05T01:21:07.882Z,65.00
2022-11-05T01:21:17.864Z,65.40
2022-11-05T01:21:27.871Z,65.60
2022-11-05T01:21:37.881Z,65.40
2022-11-05T01:21:48.792Z,64.90
2022-11-05T01:21:57.876Z,64.60
2022-11-05T01:22:08.870Z,65.00
2022-11-05T01:22:18.782Z,66.10
2022-11-05T01:22:27.876Z,66.70
2022-11-05T01:22:37.856Z,67.10
2022-11-05T01:22:47.850Z,67.90
2022-11-05T01:22:57.860Z,68.80
2022-11-05T01:23:13.140Z,68.60
2022-11-05T01:23:18.166Z,68.40
2022-11-05T01:23:28.008Z,68.00
2022-11-05T01:23:37.866Z,68.60
2022-11-05T01:23:47.849Z,68.00
2022-11-05T01:23:57.881Z,67.10
2022-11-05T01:24:07.922Z,65.80
2022-11-05T01:24:18.779Z,66.90
2022-11-05T01:24:27.869Z,68.00
2022-11-05T01:24:37.908Z,68.40
2022-11-05T01:24:47.852Z,67.50
2022-11-05T01:24:57.928Z,68.20
2022-11-05T01:25:07.843Z,67.50
2022-11-05T01:25:17.924Z,66.90
2022-11-05T01:25:27.867Z,64.10
2022-11-05T01:25:37.951Z,64.30
2022-11-05T01:25:47.841Z,64.20
2022-11-05T01:25:57.837Z,65.50
2022-11-05T01:26:07.866Z,65.80
2022-11-05T01:26:17.872Z,65.90
2022-11-05T01:26:27.938Z,66.00
2022-11-05T01:26:37.846Z,66.10
2022-11-05T01:26:47.915Z,65.60
2022-11-05T01:26:57.849Z,64.70
2022-11-05T01:27:07.875Z,64.90
2022-11-05T01:27:17.824Z,64.90
2022-11-05T01:27:27.841Z,66.20
2022-11-05T01:27:37.833Z,66.00
2022-11-05T01:27:47.840Z,66.00
2022-11-05T01:27:57.850Z,64.60
2022-11-05T01:28:07.885Z,64.50
2022-11-05T01:28:18.981Z,63.20
2022-11-05T01:28:28.033Z,63.30
2022-11-05T01:28:37.887Z,62.30
2022-11-05T01:28:47.867Z,63.70
2022-11-05T01:28:58.005Z,64.60
2022-11-05T01:29:07.974Z,65.50
2022-11-05T01:29:17.823Z,67.00
2022-11-05T01:29:27.824Z,66.40
2022-11-05T01:29:37.825Z,66.70
2022-11-05T01:29:47.876Z,66.30
2022-11-05T01:29:57.821Z,64.90
2022-11-05T01:30:07.850Z,63.10
2022-11-05T01:30:17.827Z,61.80
2022-11-05T01:30:27.922Z,62.20
2022-11-05T01:30:37.823Z,60.20
2022-11-05T01:30:47.833Z,56.60
2022-11-05T01:30:57.833Z,55.90
2022-11-05T01:31:07.832Z,57.50
2022-11-05T01:31:17.840Z,60.40
2022-11-05T01:31:27.826Z,59.60
2022-11-05T01:31:37.815Z,58.10
2022-11-05T01:31:47.836Z,56.90
2022-11-05T01:31:57.835Z,57.80
2022-11-05T01:32:07.819Z,58.20
2022-11-05T01:32:17.844Z,58.40
2022-11-05T01:32:27.832Z,58.50
2022-11-05T01:32:37.979Z,59.80
2022-11-05T01:32:47.810Z,60.40
2022-11-05T01:32:57.813Z,60.60
2022-11-05T01:33:08.034Z,59.30
2022-11-05T01:33:17.803Z,60.10
2022-11-05T01:33:27.817Z,60.00
2022-11-05T01:33:37.800Z,62.30
2022-11-05T01:33:47.815Z,62.40
2022-11-05T01:33:57.796Z,63.70
2022-11-05T01:34:07.835Z,62.50
2022-11-05T01:34:17.797Z,62.20
2022-11-05T01:34:27.820Z,60.90
2022-11-05T01:34:37.891Z,59.40
2022-11-05T01:34:47.812Z,59.80
2022-11-05T01:34:58.370Z,57.40
2022-11-05T01:35:07.799Z,59.30
2022-11-05T01:35:17.812Z,57.30
2022-11-05T01:35:27.824Z,60.20
2022-11-05T01:35:37.849Z,59.60
2022-11-05T01:35:47.834Z,60.10
2022-11-05T01:35:57.800Z,58.70
2022-11-05T01:36:07.791Z,59.00
2022-11-05T01:36:17.808Z,60.00
2022-11-05T01:36:27.801Z,61.30
2022-11-05T01:36:37.840Z,62.20
2022-11-05T01:36:47.801Z,63.60
2022-11-05T01:36:57.792Z,64.00
2022-11-05T01:37:07.790Z,62.70
2022-11-05T01:37:17.786Z,62.70
2022-11-05T01:37:27.811Z,62.10
2022-11-05T01:37:37.807Z,62.50
2022-11-05T01:37:47.787Z,60.60
2022-11-05T01:37:57.877Z,60.10
2022-11-05T01:38:07.808Z,59.60
2022-11-05T01:38:17.789Z,59.60
2022-11-05T01:38:27.787Z,58.10
2022-11-05T01:38:38.308Z,58.60
2022-11-05T01:38:47.947Z,58.90
2022-11-05T01:38:57.782Z,59.40
2022-11-05T01:39:07.802Z,59.10
2022-11-05T01:39:17.799Z,59.20
2022-11-05T01:39:27.787Z,60.90
2022-11-05T01:39:37.773Z,61.70
2022-11-05T01:39:47.799Z,62.20
2022-11-05T01:39:57.778Z,62.20
2022-11-05T01:40:08.022Z,62.60
2022-11-05T01:40:17.794Z,62.30
2022-11-05T01:40:27.786Z,61.80
2022-11-05T01:40:37.772Z,59.80
2022-11-05T01:40:48.297Z,58.50
2022-11-05T01:40:57.901Z,59.00
2022-11-05T01:41:07.774Z,60.40
2022-11-05T01:41:17.766Z,61.20
2022-11-05T01:41:27.787Z,60.20
2022-11-05T01:41:38.299Z,59.60
2022-11-05T01:41:47.779Z,60.00
2022-11-05T01:41:57.779Z,59.30
2022-11-05T01:42:07.772Z,57.50
2022-11-05T01:42:17.774Z,56.20
2022-11-05T01:42:27.799Z,57.30
2022-11-05T01:42:37.790Z,59.00
2022-11-05T01:42:47.910Z,59.80
2022-11-05T01:42:57.864Z,59.70
2022-11-05T01:43:08.030Z,60.10
2022-11-05T01:43:17.768Z,60.70
2022-11-05T01:43:28.769Z,60.10
2022-11-05T01:43:37.854Z,59.10
2022-11-05T01:43:47.783Z,58.70
2022-11-05T01:43:57.821Z,58.60
2022-11-05T01:44:07.777Z,58.10
2022-11-05T01:44:17.771Z,58.00
2022-11-05T01:44:27.760Z,57.40
2022-11-05T01:44:37.786Z,58.90
2022-11-05T01:44:47.765Z,60.70
2022-11-05T01:44:58.312Z,62.80
2022-11-05T01:45:07.753Z,63.80
2022-11-05T01:45:17.808Z,62.90
2022-11-05T01:45:27.772Z,62.30
2022-11-05T01:45:37.747Z,61.60
2022-11-05T01:45:47.759Z,61.50
2022-11-05T01:45:57.776Z,61.00
2022-11-05T01:46:07.762Z,61.30
2022-11-05T01:46:17.841Z,61.20
2022-11-05T01:46:27.776Z,60.70
2022-11-05T01:46:37.755Z,58.60
2022-11-05T01:46:47.750Z,57.10
2022-11-05T01:46:57.776Z,57.40
2022-11-05T01:47:07.821Z,59.10
2022-11-05T01:47:17.767Z,62.20
2022-11-05T01:47:27.783Z,64.20
2022-11-05T01:47:37.750Z,67.00
2022-11-05T01:47:47.756Z,68.30
2022-11-05T01:47:57.758Z,70.60
2022-11-05T01:48:07.763Z,70.00
2022-11-05T01:48:17.751Z,67.70
2022-11-05T01:48:27.801Z,65.60
2022-11-05T01:48:37.766Z,65.80
2022-11-05T01:48:47.737Z,68.80
2022-11-05T01:49:02.979Z,70.20
2022-11-05T01:49:07.805Z,71.50
2022-11-05T01:49:18.291Z,71.40
2022-11-05T01:49:27.739Z,72.20
2022-11-05T01:49:37.743Z,71.20
2022-11-05T01:49:47.753Z,70.30
2022-11-05T01:49:57.740Z,70.40
2022-11-05T01:50:07.736Z,71.20
2022-11-05T01:50:17.765Z,72.50
2022-11-05T01:50:27.815Z,72.30
2022-11-05T01:50:37.733Z,72.90
2022-11-05T01:50:48.300Z,74.10
2022-11-05T01:50:57.743Z,75.10
2022-11-05T01:51:07.740Z,75.30
2022-11-05T01:51:17.819Z,72.10
2022-11-05T01:51:27.909Z,70.10
2022-11-05T01:51:37.736Z,67.90
2022-11-05T01:51:47.723Z,66.70
2022-11-05T01:51:57.718Z,65.90
2022-11-05T01:52:07.764Z,65.60
2022-11-05T01:52:18.317Z,67.30
2022-11-05T01:52:27.735Z,67.40
2022-11-05T01:52:37.727Z,66.30
2022-11-05T01:52:47.721Z,66.10
2022-11-05T01:52:57.861Z,65.70
2022-11-05T01:53:08.091Z,67.30
2022-11-05T01:53:18.303Z,67.70
2022-11-05T01:53:27.725Z,67.40
2022-11-05T01:53:37.718Z,66.70
2022-11-05T01:53:47.731Z,66.00
2022-11-05T01:53:57.726Z,65.90
2022-11-05T01:54:07.733Z,67.40
2022-11-05T01:54:17.730Z,67.70
2022-11-05T01:54:27.734Z,70.10
2022-11-05T01:54:37.707Z,69.90
2022-11-05T01:54:47.739Z,71.30
2022-11-05T01:54:57.706Z,70.00
2022-11-05T01:55:07.816Z,67.00
2022-11-05T01:55:17.723Z,63.40
2022-11-05T01:55:27.790Z,60.10
2022-11-05T01:55:37.761Z,61.30
2022-11-05T01:55:47.708Z,63.60
2022-11-05T01:55:57.739Z,65.40
2022-11-05T01:56:07.710Z,66.00
2022-11-05T01:56:18.299Z,65.70
2022-11-05T01:56:27.709Z,67.80
2022-11-05T01:56:37.743Z,67.10
2022-11-05T01:56:47.713Z,66.40
2022-11-05T01:56:57.718Z,65.50
2022-11-05T01:57:07.705Z,66.90
2022-11-05T01:57:17.769Z,67.70
2022-11-05T01:57:28.323Z,67.70
2022-11-05T01:57:37.728Z,68.10
2022-11-05T01:57:47.714Z,68.50
2022-11-05T01:57:57.747Z,65.90
2022-11-05T01:58:07.707Z,63.70
2022-11-05T01:58:17.695Z,63.80
2022-11-05T01:58:27.703Z,64.20
2022-11-05T01:58:37.694Z,66.40
2022-11-05T01:58:47.700Z,63.40
2022-11-05T01:58:57.695Z,61.20
2022-11-05T01:59:07.694Z,57.30
2022-11-05T01:59:17.716Z,55.50
2022-11-05T01:59:28.318Z,57.10
2022-11-05T01:59:37.768Z,58.70
2022-11-05T01:59:48.306Z,61.20
2022-11-05T01:59:57.717Z,62.10
2022-11-05T02:00:07.699Z,63.00
2022-11-05T02:00:17.735Z,62.90
2022-11-05T02:00:27.824Z,62.30
2022-11-05T02:00:37.696Z,61.00
2022-11-05T02:00:47.775Z,60.20
2022-11-05T02:00:57.707Z,60.00
2022-11-05T02:01:07.682Z,60.30
2022-11-05T02:01:18.513Z,60.90
2022-11-05T02:01:27.854Z,63.60
2022-11-05T02:01:37.864Z,64.00
2022-11-05T02:01:47.872Z,64.30
2022-11-05T02:01:57.784Z,61.20
2022-11-05T02:02:07.919Z,59.00
2022-11-05T02:02:17.865Z,60.10
2022-11-05T02:02:27.838Z,61.20
2022-11-05T02:02:37.872Z,61.20
2022-11-05T02:02:47.809Z,58.80
2022-11-05T02:02:57.773Z,57.90
2022-11-05T02:03:08.680Z,59.20
2022-11-05T02:03:18.314Z,59.30
2022-11-05T02:03:27.689Z,58.60
2022-11-05T02:03:38.335Z,58.40
2022-11-05T02:03:48.299Z,59.50
2022-11-05T02:03:57.731Z,60.90
2022-11-05T02:04:07.695Z,60.90
2022-11-05T02:04:17.754Z,60.50
2022-11-05T02:04:27.684Z,61.50
2022-11-05T02:04:37.688Z,62.20
2022-11-05T02:04:47.677Z,63.00
2022-11-05T02:04:57.686Z,62.60
2022-11-05T02:05:07.662Z,62.60
2022-11-05T02:05:18.309Z,59.90
2022-11-05T02:05:27.669Z,58.80
2022-11-05T02:05:38.326Z,58.60
2022-11-05T02:05:48.301Z,59.30
2022-11-05T02:05:58.371Z,58.40
2022-11-05T02:06:07.667Z,55.50
2022-11-05T02:06:17.673Z,51.10
2022-11-05T02:06:27.783Z,44.50
2022-11-05T02:06:37.700Z,39.70
2022-11-05T02:06:47.681Z,38.70
2022-11-05T02:06:57.667Z,38.40
2022-11-05T02:07:07.718Z,39.00
2022-11-05T02:07:17.757Z,39.80
2022-11-05T02:07:27.660Z,41.70
2022-11-05T02:07:37.674Z,42.30
2022-11-05T02:07:48.325Z,41.50
2022-11-05T02:07:57.662Z,41.70
2022-11-05T02:08:07.717Z,41.30
2022-11-05T02:08:17.675Z,41.50
2022-11-05T02:08:27.649Z,40.60
2022-11-05T02:08:37.654Z,39.90
2022-11-05T02:08:47.644Z,37.30